Other Surface Observations
Issued by NWS Great Falls, MT

Home | Current Version | Previous Version | Text Only | Print | Product List | Glossary On
Versions: 1 2 3 4 5 6 7 8 9 10 11 12 13 14 15 16 17 18 19 20 21 22 23 24 25 26 27 28 29 30 31 32 33 34 35 36 37 38 39 40 41 42 43 44 45 46 47 48 49 50
000
SXUS55 KTFX 211510
OSOTFX
AREA AWOS OBSERVATIONS
NATIONAL WEATHER SERVICE GREAT FALLS MT
0905 AM MDT SUN SEP 21 2014

METAR KPWD 211500Z AUTO 26004KT 10SM 11/03 A3029 RMK PLENTYWOOD
METAR KPO1 211500Z AUTO 22003KT 09/04 RMK POPLAR
METAR K1S3 211500Z AUTO 07007KT 10SM 13/07 A3030 RMK FORSYTH
METAR KS71 211500Z AUTO 09005KT 10SM 09/06 A3026 RMK CHINOOK
METAR K6S0 211500Z AUTO 10SM 11/06 A3031 RMK BIG TIMBER
METAR K79S 211500Z AUTO 00000KT 10SM 11/06 A3026 RMK FORT BENTON
METAR KEKS 211500Z AUTO 29003KT 10SM 10/04 A3036 RMK ENNIS
METAR K38S 211500Z AUTO 00000KT 10SM 09/04 A3029 RMK DEER LODGE
METAR K3U3 211500Z AUTO 19005KT 13/03 A3026 RMK ANACONDA
METAR K6S5 211500Z AUTO 16005KT 10SM 12/04 A3019 RMK HAMILTON
METAR KS59 211500Z AUTO 00000KT 10SM 10/05 A3017 RMK LIBBY



USA.gov is the U.S. government's official web portal to all federal, state and local government web resources and services.